Time;durP1;ratioP1;P1;durP2;ratioP2;P2;SDS_P1;SDS_P2;PMS_P1;PMS_P2;Temp;Humidity;BMP_temperature;BMP_pressure;BME280_temperature;BME280_humidity;BME280_pressure;Samples;Min_cycle;Max_cycle;Signal;HPM_P1;HPM_P2
2022/09/29 00:02:10;;;;;;;4.60;2.60;;;14.10;99.90;;;;;;5051750;28;20031;-86
2022/09/29 00:04:36;;;;;;;4.97;2.90;;;14.10;99.90;;;;;;5048977;28;20449;-86
2022/09/29 00:07:01;;;;;;;5.22;3.47;;;14.10;99.90;;;;;;5051336;28;20115;-86
2022/09/29 00:09:27;;;;;;;4.65;3.15;;;14.10;99.90;;;;;;5069646;28;20060;-86
2022/09/29 00:11:54;;;;;;;4.55;3.30;;;14.10;99.90;;;;;;5028681;28;20052;-86
2022/09/29 00:14:20;;;;;;;4.03;3.13;;;14.10;99.90;;;;;;5057108;28;20036;-86
2022/09/29 00:16:49;;;;;;;4.15;3.28;;;14.10;99.90;;;;;;5051935;28;20055;-85
2022/09/29 00:19:15;;;;;;;4.60;2.90;;;14.10;99.90;;;;;;5047534;28;20021;-87
2022/09/29 00:21:42;;;;;;;3.72;2.90;;;14.10;99.90;;;;;;5062865;28;20628;-86
2022/09/29 00:26:35;;;;;;;4.32;3.03;;;14.00;99.90;;;;;;5065290;28;20474;-79
2022/09/29 00:29:01;;;;;;;3.05;2.40;;;14.00;99.90;;;;;;5049750;28;20032;-79
2022/09/29 00:31:30;;;;;;;3.33;2.70;;;14.00;99.90;;;;;;5048285;28;20024;-77
2022/09/29 00:33:57;;;;;;;2.90;2.33;;;14.00;99.90;;;;;;5072302;28;20415;-78
2022/09/29 00:36:24;;;;;;;3.53;2.75;;;13.90;99.90;;;;;;5057033;28;20036;-79
2022/09/29 00:38:53;;;;;;;4.78;2.75;;;13.90;99.90;;;;;;5088637;28;20032;-78
2022/09/29 00:41:25;;;;;;;2.38;2.00;;;13.90;99.90;;;;;;5055770;28;20055;-77
2022/09/29 00:43:51;;;;;;;2.70;2.03;;;13.90;99.90;;;;;;5061626;28;20019;-78
2022/09/29 00:46:38;;;;;;;3.90;2.50;;;13.90;99.90;;;;;;5081177;28;20021;-78
2022/09/29 00:49:14;;;;;;;2.80;2.20;;;13.90;99.90;;;;;;5059104;28;20029;-77
2022/09/29 00:51:43;;;;;;;4.75;2.25;;;13.90;99.90;;;;;;5049714;28;20094;-79
2022/09/29 00:54:10;;;;;;;3.00;2.42;;;13.80;99.90;;;;;;5047938;28;20032;-79
2022/09/29 00:56:39;;;;;;;3.85;2.88;;;13.80;99.90;;;;;;5063284;28;20021;-79
2022/09/29 00:59:10;;;;;;;2.97;2.40;;;13.80;99.90;;;;;;5064733;28;20025;-78
2022/09/29 01:01:36;;;;;;;2.75;2.30;;;13.80;99.90;;;;;;5052108;28;20025;-79
2022/09/29 01:04:10;;;;;;;3.83;2.45;;;13.80;99.90;;;;;;5070891;28;20029;-79
2022/09/29 01:06:38;;;;;;;;;;;13.80;99.90;;;;;;5052519;28;20495;-79
2022/09/29 01:09:07;;;;;;;4.10;2.20;;;13.80;99.90;;;;;;5061734;28;19960;-79
2022/09/29 01:11:34;;;;;;;2.83;2.42;;;13.90;99.90;;;;;;5049096;28;20039;-76
2022/09/29 01:14:03;;;;;;;2.38;1.77;;;13.90;99.90;;;;;;5079067;28;20360;-76
2022/09/29 01:16:31;;;;;;;3.20;2.30;;;13.90;99.90;;;;;;5049903;28;20039;-78
2022/09/29 01:18:59;;;;;;;2.33;2.00;;;13.90;99.90;;;;;;5065903;28;20060;-79
2022/09/29 01:21:39;;;;;;;2.30;2.08;;;13.90;99.90;;;;;;5058661;28;20115;-79
2022/09/29 01:24:37;;;;;;;2.72;2.10;;;13.80;99.90;;;;;;5053694;28;20093;-78
2022/09/29 01:27:22;;;;;;;2.20;1.88;;;13.80;99.90;;;;;;5076232;28;20054;-79
2022/09/29 01:30:00;;;;;;;1.70;1.60;;;13.80;99.90;;;;;;5051427;28;20032;-79
2022/09/29 01:32:45;;;;;;;1.88;1.50;;;13.80;99.90;;;;;;5075811;28;20039;-78
2022/09/29 01:35:30;;;;;;;1.95;1.40;;;13.80;99.90;;;;;;5075756;28;20036;-77
2022/09/29 01:38:14;;;;;;;1.77;1.60;;;13.70;99.90;;;;;;5068196;28;20115;-78
2022/09/29 01:41:03;;;;;;;2.40;1.77;;;13.70;99.90;;;;;;5050554;28;20028;-78
2022/09/29 01:43:50;;;;;;;1.40;1.30;;;13.70;99.90;;;;;;5074513;28;20025;-80
2022/09/29 01:46:22;;;;;;;1.55;1.42;;;13.70;99.90;;;;;;5067594;28;20025;-79
2022/09/29 01:48:53;;;;;;;2.75;1.50;;;13.70;99.90;;;;;;5055120;28;20059;-79
2022/09/29 01:51:24;;;;;;;2.05;1.40;;;13.70;99.90;;;;;;5065735;28;20048;-79
2022/09/29 01:53:54;;;;;;;2.20;1.33;;;13.70;99.90;;;;;;5080981;28;20102;-79
2022/09/29 01:56:36;;;;;;;1.63;1.40;;;13.70;99.90;;;;;;5069016;28;20052;-77
2022/09/29 01:59:17;;;;;;;4.82;1.77;;;13.70;99.90;;;;;;5073797;28;20021;-79
2022/09/29 02:01:46;;;;;;;1.70;1.35;;;13.60;99.90;;;;;;5072518;28;20052;-79
2022/09/29 02:04:23;;;;;;;1.40;1.30;;;13.60;99.90;;;;;;5073649;28;20480;-79
2022/09/29 02:07:08;;;;;;;1.70;1.27;;;13.60;99.90;;;;;;5054489;28;20074;-79
2022/09/29 02:09:40;;;;;;;1.13;1.02;;;13.60;99.90;;;;;;5065827;28;20373;-80
2022/09/29 02:12:07;;;;;;;1.48;1.15;;;13.60;99.90;;;;;;5069844;28;20037;-79
2022/09/29 02:14:41;;;;;;;2.30;1.50;;;13.60;99.90;;;;;;5061718;28;20551;-79
2022/09/29 02:17:18;;;;;;;1.45;1.35;;;13.60;99.90;;;;;;5048004;28;20070;-78
2022/09/29 02:19:46;;;;;;;1.73;1.35;;;13.60;99.90;;;;;;5086687;28;20055;-79
2022/09/29 02:22:13;;;;;;;1.65;1.40;;;13.60;99.90;;;;;;5062081;28;20061;-78
2022/09/29 02:24:38;;;;;;;1.88;1.30;;;13.60;99.90;;;;;;5083212;28;20569;-79
2022/09/29 02:27:05;;;;;;;0.98;0.93;;;13.50;99.90;;;;;;5073983;28;20438;-79
2022/09/29 02:29:32;;;;;;;1.67;1.10;;;13.60;99.90;;;;;;5068664;28;20487;-79
2022/09/29 02:32:01;;;;;;;1.23;0.90;;;13.50;99.90;;;;;;5083812;28;20024;-79
2022/09/29 02:34:35;;;;;;;1.55;1.30;;;13.50;99.90;;;;;;5057016;28;20509;-79
2022/09/29 02:37:26;;;;;;;1.50;1.40;;;13.50;99.90;;;;;;5057815;28;20068;-80
2022/09/29 02:40:18;;;;;;;1.38;1.13;;;13.50;99.90;;;;;;5046104;28;20036;-79
2022/09/29 02:42:55;;;;;;;1.73;1.42;;;13.50;99.90;;;;;;5069547;28;20024;-77
2022/09/29 02:45:42;;;;;;;1.73;1.40;;;13.50;99.90;;;;;;5058399;28;20528;-79
2022/09/29 02:48:20;;;;;;;1.10;1.00;;;13.50;99.90;;;;;;5068035;28;20079;-78
2022/09/29 02:51:04;;;;;;;3.95;1.20;;;13.50;99.90;;;;;;5050812;28;20016;-79
2022/09/29 02:54:02;;;;;;;1.10;1.00;;;13.50;99.90;;;;;;5074614;28;20399;-77
2022/09/29 02:56:46;;;;;;;1.67;1.50;;;13.50;99.90;;;;;;5083462;28;20060;-78
2022/09/29 02:59:14;;;;;;;;;;;13.50;99.90;;;;;;5075887;28;20024;-78
2022/09/29 03:01:51;;;;;;;1.08;1.00;;;13.50;99.90;;;;;;5074036;28;19971;-75
2022/09/29 03:04:19;;;;;;;2.13;1.38;;;13.50;99.90;;;;;;5055176;28;20067;-79
2022/09/29 03:06:45;;;;;;;1.52;1.10;;;13.50;99.90;;;;;;5048653;28;20429;-78
2022/09/29 03:09:11;;;;;;;1.38;1.13;;;13.50;99.90;;;;;;5054419;28;20067;-77
2022/09/29 03:11:36;;;;;;;1.25;1.15;;;13.40;99.90;;;;;;5067487;28;20048;-79
2022/09/29 03:14:03;;;;;;;1.20;1.10;;;13.40;99.90;;;;;;5049673;28;20025;-79
2022/09/29 03:16:28;;;;;;;1.15;1.05;;;13.40;99.90;;;;;;5052387;28;20078;-79
2022/09/29 03:18:55;;;;;;;1.23;1.15;;;13.40;99.90;;;;;;5057386;28;20028;-79
2022/09/29 03:21:21;;;;;;;2.30;1.00;;;13.40;99.90;;;;;;5056535;28;20031;-79
2022/09/29 03:23:47;;;;;;;2.03;0.93;;;13.40;99.90;;;;;;5061598;28;20017;-79
2022/09/29 03:26:12;;;;;;;1.42;1.30;;;13.40;99.90;;;;;;5058872;28;20472;-78
2022/09/29 03:28:39;;;;;;;1.25;1.15;;;13.40;99.90;;;;;;5081199;28;20029;-79
2022/09/29 03:31:08;;;;;;;1.40;1.30;;;13.40;99.90;;;;;;5057989;28;20025;-80
2022/09/29 03:33:34;;;;;;;1.20;1.10;;;13.40;99.90;;;;;;5055508;28;20158;-78
2022/09/29 03:36:00;;;;;;;1.25;1.15;;;13.40;99.90;;;;;;5052896;28;20028;-79
2022/09/29 03:38:26;;;;;;;1.13;0.90;;;13.40;99.90;;;;;;5058890;28;20028;-79
2022/09/29 03:40:51;;;;;;;1.70;1.08;;;13.40;99.90;;;;;;5071032;28;20020;-78
2022/09/29 03:43:17;;;;;;;1.65;1.23;;;13.40;99.90;;;;;;5081598;28;20028;-78
2022/09/29 03:45:51;;;;;;;1.48;1.20;;;13.40;99.90;;;;;;5063319;28;20025;-79
2022/09/29 03:48:17;;;;;;;;;;;13.40;99.90;;;;;;5080302;28;20029;-79
2022/09/29 03:50:45;;;;;;;1.40;1.30;;;13.40;99.90;;;;;;5056846;28;19908;-79
2022/09/29 03:53:11;;;;;;;1.33;1.10;;;13.40;99.90;;;;;;5058550;28;20127;-78
2022/09/29 03:55:37;;;;;;;1.40;1.23;;;13.40;99.90;;;;;;5047651;28;20020;-79
2022/09/29 03:58:03;;;;;;;1.00;0.90;;;13.40;99.90;;;;;;5053880;28;20024;-78
2022/09/29 04:00:29;;;;;;;1.48;1.20;;;13.40;99.90;;;;;;5058648;28;20039;-78
2022/09/29 04:02:55;;;;;;;1.23;1.13;;;13.40;99.90;;;;;;5059284;28;20028;-79
2022/09/29 04:05:20;;;;;;;1.55;1.45;;;13.40;99.90;;;;;;5054552;28;20036;-77
2022/09/29 04:07:47;;;;;;;1.20;1.10;;;13.40;99.90;;;;;;5071561;28;20037;-79
2022/09/29 04:10:12;;;;;;;1.30;1.08;;;13.40;99.90;;;;;;5052815;28;20111;-79
2022/09/29 04:12:38;;;;;;;1.50;1.40;;;13.30;99.90;;;;;;5048678;28;20155;-79
2022/09/29 04:15:05;;;;;;;1.60;1.45;;;13.30;99.90;;;;;;5048742;28;20021;-79
2022/09/29 04:17:31;;;;;;;1.30;1.20;;;13.30;99.90;;;;;;5080823;28;20491;-78
2022/09/29 04:19:56;;;;;;;1.85;1.30;;;13.30;99.90;;;;;;5057210;28;20032;-79
2022/09/29 04:22:22;;;;;;;1.70;1.40;;;13.30;99.90;;;;;;5077308;28;20417;-79
2022/09/29 04:24:48;;;;;;;1.65;1.10;;;13.30;99.90;;;;;;5055816;28;20539;-79
2022/09/29 04:27:15;;;;;;;1.58;1.33;;;13.30;99.90;;;;;;5055759;28;20492;-77
2022/09/29 04:29:40;;;;;;;1.13;0.98;;;13.30;99.90;;;;;;5065653;28;20056;-78
2022/09/29 04:32:07;;;;;;;1.42;1.00;;;13.30;99.90;;;;;;5074976;28;20024;-79
2022/09/29 04:34:33;;;;;;;1.40;1.30;;;13.30;99.90;;;;;;5052414;28;20060;-78
2022/09/29 04:36:59;;;;;;;1.50;0.82;;;13.30;99.90;;;;;;5063361;28;20023;-78
2022/09/29 04:39:25;;;;;;;1.02;0.93;;;13.30;99.90;;;;;;5056492;28;20020;-78
2022/09/29 04:41:50;;;;;;;1.10;1.00;;;13.30;99.90;;;;;;5067402;28;20031;-78
2022/09/29 04:44:19;;;;;;;1.38;1.10;;;13.20;99.90;;;;;;5063426;28;20518;-79
2022/09/29 04:46:44;;;;;;;1.02;0.90;;;13.20;99.90;;;;;;5078231;28;20032;-80
2022/09/29 04:49:10;;;;;;;1.33;1.23;;;13.20;99.90;;;;;;5080593;28;20378;-79
2022/09/29 04:51:36;;;;;;;0.95;0.90;;;13.20;99.90;;;;;;5054957;28;20036;-79
2022/09/29 04:54:02;;;;;;;1.27;1.10;;;13.20;99.90;;;;;;5057034;28;20028;-78
2022/09/29 04:56:30;;;;;;;1.98;1.30;;;13.20;99.90;;;;;;5055420;28;20511;-77
2022/09/29 04:58:57;;;;;;;1.27;1.00;;;13.20;99.90;;;;;;5054321;28;20064;-76
2022/09/29 05:01:23;;;;;;;1.10;1.00;;;13.20;99.90;;;;;;5056581;28;20151;-78
2022/09/29 05:03:49;;;;;;;1.30;1.20;;;13.20;99.90;;;;;;5055691;28;20454;-79
2022/09/29 05:06:14;;;;;;;1.23;1.10;;;13.20;99.90;;;;;;5044839;28;20497;-78
2022/09/29 05:08:40;;;;;;;0.80;0.80;;;13.20;99.90;;;;;;5042953;28;20048;-78
2022/09/29 05:11:07;;;;;;;1.33;1.20;;;13.20;99.90;;;;;;5065931;28;20472;-78
2022/09/29 05:13:34;;;;;;;2.05;1.42;;;13.10;99.90;;;;;;5075181;28;20028;-78
2022/09/29 05:16:00;;;;;;;1.30;1.17;;;13.10;99.90;;;;;;5053158;28;20024;-79
2022/09/29 05:18:26;;;;;;;1.33;1.08;;;13.20;99.90;;;;;;5074964;28;20032;-79
2022/09/29 05:20:52;;;;;;;1.63;1.38;;;13.10;99.90;;;;;;5068163;28;20105;-79
2022/09/29 05:23:18;;;;;;;1.05;0.95;;;13.20;99.90;;;;;;5055834;28;20023;-79
2022/09/29 05:25:44;;;;;;;1.50;1.00;;;13.10;99.90;;;;;;5064197;28;20028;-77
2022/09/29 05:28:11;;;;;;;1.10;0.98;;;13.10;99.90;;;;;;5064459;28;20051;-79
2022/09/29 05:30:37;;;;;;;1.33;1.10;;;13.10;99.90;;;;;;5051031;28;20029;-78
2022/09/29 05:33:04;;;;;;;1.35;1.02;;;13.10;99.90;;;;;;5064527;28;20020;-79
2022/09/29 05:35:30;;;;;;;1.40;1.23;;;13.10;99.90;;;;;;5057031;28;20540;-78
2022/09/29 05:37:56;;;;;;;1.10;1.00;;;13.10;99.90;;;;;;5065126;28;20115;-77
2022/09/29 05:40:23;;;;;;;1.20;1.02;;;13.10;99.90;;;;;;5057388;28;20108;-77
2022/09/29 05:42:50;;;;;;;0.98;0.90;;;13.10;99.90;;;;;;5052348;28;20021;-79
2022/09/29 05:45:16;;;;;;;1.20;1.10;;;13.10;99.90;;;;;;5061374;28;20489;-79
2022/09/29 05:47:43;;;;;;;1.17;1.08;;;13.10;99.90;;;;;;5068671;28;20029;-78
2022/09/29 05:50:12;;;;;;;1.80;1.30;;;13.10;99.90;;;;;;5062362;28;20074;-77
2022/09/29 05:52:39;;;;;;;1.23;1.08;;;13.10;99.90;;;;;;5051251;28;20025;-77
2022/09/29 05:55:08;;;;;;;1.77;1.35;;;13.10;99.90;;;;;;5065410;28;20055;-77
2022/09/29 05:57:34;;;;;;;1.38;1.05;;;13.10;99.90;;;;;;5073626;28;20040;-76
2022/09/29 06:00:01;;;;;;;2.20;1.63;;;13.00;99.90;;;;;;5048941;28;20033;-76
2022/09/29 06:02:26;;;;;;;1.85;1.08;;;13.00;99.90;;;;;;5054030;28;20039;-77
2022/09/29 06:04:52;;;;;;;1.02;0.90;;;13.00;99.90;;;;;;5060057;28;20016;-77
2022/09/29 06:07:18;;;;;;;1.42;1.20;;;13.00;99.90;;;;;;5053029;28;20476;-76
2022/09/29 06:09:44;;;;;;;1.75;1.20;;;13.00;99.90;;;;;;5049006;28;20074;-78
2022/09/29 06:12:10;;;;;;;1.42;1.05;;;13.10;99.90;;;;;;5061266;28;20024;-77
2022/09/29 06:14:36;;;;;;;2.10;1.38;;;13.00;99.90;;;;;;5055249;28;20025;-78
2022/09/29 06:17:01;;;;;;;1.63;1.33;;;13.00;99.90;;;;;;5052933;28;20099;-77
2022/09/29 06:19:27;;;;;;;1.45;0.90;;;13.10;99.90;;;;;;5059449;28;20028;-77
2022/09/29 06:21:53;;;;;;;1.65;1.38;;;13.00;99.90;;;;;;5055461;28;20024;-77
2022/09/29 06:24:19;;;;;;;1.33;0.98;;;13.00;99.90;;;;;;5050859;28;20395;-77
2022/09/29 06:26:44;;;;;;;1.20;1.10;;;13.00;99.90;;;;;;5044328;28;20097;-77
2022/09/29 06:29:10;;;;;;;1.83;1.30;;;13.00;99.90;;;;;;5063920;28;20392;-76
2022/09/29 06:31:37;;;;;;;1.50;1.40;;;13.00;99.90;;;;;;5053378;28;20028;-76
2022/09/29 06:34:04;;;;;;;1.58;1.20;;;13.00;99.90;;;;;;5053774;28;20032;-78
2022/09/29 06:39:27;;;;;;;1.67;1.23;;;13.00;99.90;;;;;;5069826;28;20040;-77
2022/09/29 06:41:56;;;;;;;3.17;1.30;;;13.00;99.90;;;;;;5057098;28;20024;-78
2022/09/29 06:44:23;;;;;;;1.63;1.33;;;13.00;99.90;;;;;;5046264;28;20032;-77
2022/09/29 06:46:50;;;;;;;4.43;2.35;;;13.00;99.90;;;;;;5052626;28;20468;-77
2022/09/29 06:49:17;;;;;;;2.75;2.00;;;13.00;99.90;;;;;;5055684;28;20051;-77
2022/09/29 06:51:43;;;;;;;3.22;2.25;;;13.00;99.90;;;;;;5063006;28;20380;-78
2022/09/29 06:54:15;;;;;;;3.60;2.20;;;13.00;99.90;;;;;;5062140;28;20109;-75
2022/09/29 06:56:41;;;;;;;3.55;2.22;;;13.00;99.90;;;;;;5046895;28;20024;-76
2022/09/29 06:59:07;;;;;;;3.28;2.20;;;13.00;99.90;;;;;;5072708;28;20499;-78
2022/09/29 07:01:33;;;;;;;2.85;2.00;;;13.00;99.90;;;;;;5067686;28;20174;-76
2022/09/29 07:04:01;;;;;;;3.10;2.42;;;13.00;99.90;;;;;;5069388;28;20028;-78
2022/09/29 07:06:28;;;;;;;3.55;2.65;;;13.00;99.90;;;;;;5054780;28;20042;-79
2022/09/29 07:08:54;;;;;;;4.28;2.70;;;13.00;99.90;;;;;;5051946;28;20053;-78
2022/09/29 07:11:20;;;;;;;5.25;3.30;;;13.00;99.90;;;;;;5049305;28;20032;-77
2022/09/29 07:13:46;;;;;;;3.03;2.45;;;12.90;99.90;;;;;;5064867;28;20020;-76
2022/09/29 07:16:13;;;;;;;4.30;2.53;;;13.00;99.90;;;;;;5044775;28;20386;-78
2022/09/29 07:18:41;;;;;;;3.63;2.55;;;13.00;99.90;;;;;;5058555;28;20028;-77
2022/09/29 07:21:09;;;;;;;4.28;2.65;;;13.00;99.90;;;;;;5052956;28;20086;-78
2022/09/29 07:23:36;;;;;;;3.88;2.45;;;13.00;99.90;;;;;;5053419;28;20020;-78
2022/09/29 07:26:03;;;;;;;3.35;2.47;;;12.90;99.90;;;;;;5052076;28;20392;-77
2022/09/29 07:28:29;;;;;;;3.75;2.03;;;12.90;99.90;;;;;;5072904;28;20096;-76
2022/09/29 07:31:02;;;;;;;3.67;2.42;;;13.00;99.90;;;;;;5059043;28;20032;-76
2022/09/29 07:33:29;;;;;;;7.80;2.80;;;13.00;99.90;;;;;;5051162;28;20115;-76
2022/09/29 07:35:55;;;;;;;4.25;2.97;;;13.00;99.90;;;;;;5053943;28;20102;-76
2022/09/29 07:38:20;;;;;;;3.95;2.95;;;12.90;99.90;;;;;;5050475;28;20045;-78
2022/09/29 07:40:47;;;;;;;3.47;2.63;;;12.90;99.90;;;;;;5051320;28;20028;-77
2022/09/29 07:43:12;;;;;;;3.72;2.85;;;12.90;99.90;;;;;;5058405;28;20052;-77
2022/09/29 07:45:38;;;;;;;3.70;2.75;;;12.90;99.90;;;;;;5050370;28;20440;-76
2022/09/29 07:48:04;;;;;;;3.85;2.83;;;13.00;99.90;;;;;;5063812;28;20056;-77
2022/09/29 07:50:30;;;;;;;3.50;2.63;;;13.00;99.90;;;;;;5052345;28;20153;-76
2022/09/29 07:52:56;;;;;;;3.97;3.17;;;13.00;99.90;;;;;;5070911;28;20116;-77
2022/09/29 07:55:22;;;;;;;3.03;2.50;;;13.00;99.90;;;;;;5058337;28;20068;-76
2022/09/29 07:57:48;;;;;;;4.10;2.92;;;13.00;99.90;;;;;;5053288;28;20036;-77
2022/09/29 08:00:16;;;;;;;3.47;2.58;;;13.00;99.90;;;;;;5053994;28;20032;-76
2022/09/29 08:02:42;;;;;;;3.33;2.58;;;13.00;99.90;;;;;;5053080;28;20036;-77
2022/09/29 08:05:08;;;;;;;3.72;2.55;;;13.00;99.90;;;;;;5044508;28;20024;-78
2022/09/29 08:07:34;;;;;;;3.88;2.88;;;13.00;99.90;;;;;;5068287;28;20027;-77
2022/09/29 08:10:00;;;;;;;4.65;2.38;;;13.00;99.90;;;;;;5051346;28;20384;-77
2022/09/29 08:12:26;;;;;;;4.53;2.65;;;13.00;99.90;;;;;;5055502;28;20036;-78
2022/09/29 08:14:52;;;;;;;5.13;3.08;;;13.00;99.90;;;;;;5059245;28;20025;-79
2022/09/29 08:17:18;;;;;;;4.28;2.92;;;13.00;99.90;;;;;;5073284;28;20020;-76
2022/09/29 08:19:43;;;;;;;3.45;2.65;;;12.90;99.90;;;;;;5080258;28;20021;-78
2022/09/29 08:22:09;;;;;;;4.93;2.60;;;13.00;99.90;;;;;;5053343;28;20499;-77
2022/09/29 08:24:39;;;;;;;3.72;2.65;;;12.90;99.90;;;;;;5052186;28;20024;-77
2022/09/29 08:27:05;;;;;;;4.28;3.03;;;12.90;99.90;;;;;;5054534;28;20017;-76
2022/09/29 08:29:32;;;;;;;5.53;3.28;;;12.90;99.90;;;;;;5044827;28;20037;-76
2022/09/29 08:31:58;;;;;;;2.92;2.28;;;13.00;99.90;;;;;;5072483;28;20089;-76
2022/09/29 08:34:23;;;;;;;4.57;2.95;;;12.90;99.90;;;;;;5047779;28;20063;-77
2022/09/29 08:39:19;;;;;;;5.05;3.20;;;12.90;99.90;;;;;;5043971;28;20098;-80
2022/09/29 08:42:12;;;;;;;6.10;3.17;;;12.90;99.90;;;;;;5045475;28;20100;-81
2022/09/29 08:44:38;;;;;;;3.83;2.58;;;12.90;99.90;;;;;;5039249;28;20025;-80
2022/09/29 08:47:07;;;;;;;2.58;2.13;;;12.90;99.90;;;;;;5029162;28;20040;-80
2022/09/29 08:49:58;;;;;;;5.28;2.92;;;12.90;99.90;;;;;;5020254;28;20087;-81
2022/09/29 08:52:28;;;;;;;3.72;2.72;;;12.90;99.90;;;;;;5019943;28;20060;-81
2022/09/29 08:55:22;;;;;;;6.35;3.22;;;12.90;99.90;;;;;;5013963;28;20053;-78
2022/09/29 08:57:56;;;;;;;3.22;2.20;;;13.00;99.90;;;;;;5030836;28;20029;-80
2022/09/29 09:00:37;;;;;;;4.68;3.28;;;12.90;99.90;;;;;;5014458;28;20049;-79
2022/09/29 09:03:50;;;;;;;4.55;2.88;;;13.00;99.90;;;;;;5029364;28;20030;-79
2022/09/29 09:06:28;;;;;;;5.55;2.80;;;13.00;99.90;;;;;;4987849;28;20035;-79
2022/09/29 09:09:08;;;;;;;3.97;2.67;;;13.00;99.90;;;;;;5018722;28;20034;-79
2022/09/29 09:12:04;;;;;;;3.08;2.53;;;13.00;99.90;;;;;;5029061;28;20037;-80
2022/09/29 09:14:43;;;;;;;3.75;2.50;;;12.90;99.90;;;;;;5019640;28;20045;-80
2022/09/29 09:17:30;;;;;;;4.07;2.67;;;13.00;99.90;;;;;;5028738;28;20026;-81
2022/09/29 09:20:15;;;;;;;4.13;2.63;;;13.00;99.90;;;;;;5018461;28;20029;-81
2022/09/29 09:22:49;;;;;;;4.03;3.03;;;13.00;99.90;;;;;;5015680;28;20017;-80
2022/09/29 09:25:29;;;;;;;3.60;2.67;;;12.90;99.90;;;;;;5029696;28;20033;-81
2022/09/29 09:28:25;;;;;;;4.68;3.00;;;12.90;99.90;;;;;;5027673;28;20021;-80
2022/09/29 09:31:04;;;;;;;5.72;3.40;;;13.00;99.90;;;;;;5023724;28;20023;-80
2022/09/29 09:33:48;;;;;;;4.15;3.05;;;13.00;99.90;;;;;;5029181;28;20025;-80
2022/09/29 09:36:20;;;;;;;3.83;2.80;;;12.90;99.90;;;;;;5025060;28;20513;-80
2022/09/29 09:39:05;;;;;;;5.20;3.00;;;12.90;99.90;;;;;;5030082;28;20037;-79
2022/09/29 09:41:34;;;;;;;3.88;2.85;;;12.90;99.90;;;;;;5053847;28;20026;-81
2022/09/29 09:44:15;;;;;;;5.45;3.22;;;13.00;99.90;;;;;;5061080;28;20014;-80
2022/09/29 09:46:49;;;;;;;4.38;2.55;;;12.90;99.90;;;;;;5022666;28;20072;-80
2022/09/29 09:49:33;;;;;;;3.80;2.67;;;12.90;99.90;;;;;;5030930;28;20397;-81
2022/09/29 09:52:10;;;;;;;4.50;2.65;;;12.90;99.90;;;;;;5018747;28;20045;-81
2022/09/29 09:54:48;;;;;;;4.15;2.80;;;12.90;99.90;;;;;;5016364;28;20022;-80
2022/09/29 09:57:38;;;;;;;4.25;3.53;;;12.90;99.90;;;;;;5018287;28;20144;-79
2022/09/29 10:00:12;;;;;;;4.07;2.60;;;12.90;99.90;;;;;;5035858;28;20065;-80
2022/09/29 10:02:43;;;;;;;4.22;2.63;;;12.90;99.90;;;;;;5017308;28;20025;-79
2022/09/29 10:05:23;;;;;;;4.25;2.70;;;13.00;99.90;;;;;;5014072;28;20437;-79
2022/09/29 10:07:49;;;;;;;4.40;3.28;;;13.00;99.90;;;;;;5023530;28;20025;-81
2022/09/29 10:10:25;;;;;;;4.03;3.25;;;12.90;99.90;;;;;;5034539;28;20027;-81
2022/09/29 10:13:07;;;;;;;3.10;2.67;;;13.00;99.90;;;;;;5025774;28;20025;-81
2022/09/29 10:15:46;;;;;;;6.15;3.03;;;13.00;99.90;;;;;;5016275;28;20131;-81
2022/09/29 10:18:39;;;;;;;4.70;3.63;;;13.00;99.90;;;;;;5025252;28;20036;-81
2022/09/29 10:21:41;;;;;;;5.03;3.25;;;12.90;99.90;;;;;;5005453;28;20117;-80
2022/09/29 10:24:22;;;;;;;4.53;3.08;;;13.00;99.90;;;;;;4970477;28;20513;-77
2022/09/29 10:26:51;;;;;;;3.92;3.15;;;13.00;99.90;;;;;;5021103;28;20121;-80
2022/09/29 10:29:28;;;;;;;5.25;3.45;;;13.00;99.90;;;;;;5013980;28;20040;-81
2022/09/29 10:32:20;;;;;;;8.02;3.80;;;13.00;99.90;;;;;;5046235;28;20057;-80
2022/09/29 10:34:50;;;;;;;4.53;3.60;;;13.00;99.90;;;;;;5024172;28;20037;-81
2022/09/29 10:37:22;;;;;;;7.25;4.47;;;13.00;99.90;;;;;;5029832;28;20029;-80
2022/09/29 10:39:49;;;;;;;4.78;4.00;;;13.00;99.90;;;;;;5009784;28;20030;-80
2022/09/29 10:42:28;;;;;;;10.00;4.05;;;13.10;99.90;;;;;;5014855;28;20048;-80
2022/09/29 10:45:00;;;;;;;9.00;4.22;;;13.00;99.90;;;;;;5032073;28;20026;-79
2022/09/29 10:47:26;;;;;;;5.70;3.85;;;13.00;99.90;;;;;;5032613;28;20030;-80
2022/09/29 10:50:19;;;;;;;5.22;3.85;;;13.10;99.90;;;;;;5014211;28;20397;-78
2022/09/29 10:53:20;;;;;;;5.65;4.45;;;13.00;99.90;;;;;;5026430;28;20022;-80
2022/09/29 10:55:50;;;;;;;6.32;4.68;;;13.00;99.90;;;;;;5030358;28;20118;-79
2022/09/29 10:58:23;;;;;;;5.65;3.88;;;13.00;99.90;;;;;;5012896;28;20036;-78
2022/09/29 11:01:06;;;;;;;4.32;3.70;;;13.00;99.90;;;;;;5028479;28;20109;-80
2022/09/29 11:03:33;;;;;;;9.32;4.55;;;13.00;99.90;;;;;;5018443;28;20086;-79
2022/09/29 11:06:03;;;;;;;6.03;4.10;;;13.00;99.90;;;;;;5031356;28;20037;-78
2022/09/29 11:08:32;;;;;;;5.72;4.88;;;13.00;99.90;;;;;;5029028;28;20083;-79
2022/09/29 11:11:24;;;;;;;5.22;4.25;;;13.00;99.90;;;;;;5016785;28;20432;-79
2022/09/29 11:13:51;;;;;;;8.70;4.50;;;13.00;99.90;;;;;;5030794;28;20033;-79
2022/09/29 11:16:37;;;;;;;7.55;3.90;;;13.00;99.90;;;;;;5046936;28;20025;-78
2022/09/29 11:19:09;;;;;;;5.43;3.47;;;13.00;99.90;;;;;;5012762;28;20045;-79
2022/09/29 11:21:59;;;;;;;5.50;3.95;;;13.10;99.90;;;;;;5030854;28;20028;-79
2022/09/29 11:24:31;;;;;;;4.30;3.80;;;13.00;99.90;;;;;;5038930;28;20052;-79
2022/09/29 11:27:23;;;;;;;5.82;3.92;;;13.00;99.90;;;;;;5030504;28;20060;-79
2022/09/29 11:29:58;;;;;;;5.32;4.15;;;13.00;99.90;;;;;;4997882;28;20037;-79
2022/09/29 11:32:32;;;;;;;4.97;4.05;;;13.00;99.90;;;;;;5031774;28;20552;-79
2022/09/29 11:35:28;;;;;;;6.53;4.32;;;13.00;99.90;;;;;;5014361;28;20025;-78
2022/09/29 11:38:15;;;;;;;4.80;3.95;;;13.00;99.90;;;;;;5026318;28;20501;-78
2022/09/29 11:40:47;;;;;;;5.00;4.50;;;13.10;99.90;;;;;;5021518;28;20033;-79
2022/09/29 11:43:22;;;;;;;6.50;3.97;;;13.10;99.90;;;;;;5016157;28;20081;-79
2022/09/29 11:45:58;;;;;;;7.03;4.32;;;13.00;99.90;;;;;;5031036;28;20036;-78
2022/09/29 11:48:33;;;;;;;5.57;4.45;;;13.00;99.90;;;;;;5015969;28;20036;-79
2022/09/29 11:51:28;;;;;;;5.75;3.97;;;13.00;99.90;;;;;;5013992;28;20394;-78
2022/09/29 11:54:13;;;;;;;;;;;13.00;99.90;;;;;;5028281;28;20481;-78
2022/09/29 11:56:50;;;;;;;3.83;3.00;;;13.00;99.90;;;;;;5052598;28;19916;-78
2022/09/29 11:59:34;;;;;;;4.40;3.15;;;13.00;99.90;;;;;;5020431;28;20030;-78
2022/09/29 12:02:27;;;;;;;4.60;3.33;;;13.10;99.90;;;;;;5030237;28;20305;-80
2022/09/29 12:04:55;;;;;;;4.25;3.03;;;13.10;99.90;;;;;;5017657;28;20067;-78
2022/09/29 12:07:51;;;;;;;4.40;2.92;;;13.10;99.90;;;;;;5034587;28;20049;-79
2022/09/29 12:10:36;;;;;;;4.88;3.42;;;13.10;99.90;;;;;;5008843;28;20076;-80
2022/09/29 12:13:31;;;;;;;3.50;3.20;;;13.10;99.90;;;;;;5035724;28;20021;-81
2022/09/29 12:16:02;;;;;;;5.18;3.35;;;13.10;99.90;;;;;;5029472;28;20022;-79
2022/09/29 12:18:47;;;;;;;3.65;2.60;;;13.10;99.90;;;;;;5034194;28;20036;-78
2022/09/29 12:21:16;;;;;;;3.08;2.38;;;13.10;99.90;;;;;;5013227;28;20074;-81
2022/09/29 12:23:44;;;;;;;5.50;2.63;;;13.10;99.90;;;;;;5016487;28;20504;-80
2022/09/29 12:26:21;;;;;;;4.00;2.92;;;13.10;99.90;;;;;;5020056;28;20525;-79
2022/09/29 12:29:24;;;;;;;4.38;2.25;;;13.10;99.90;;;;;;5034171;28;20029;-80
2022/09/29 12:31:53;;;;;;;4.10;2.40;;;13.10;99.90;;;;;;5024265;28;20022;-79
2022/09/29 12:34:48;;;;;;;6.90;2.72;;;13.00;99.90;;;;;;5059865;28;20037;-78
2022/09/29 12:37:43;;;;;;;4.95;2.63;;;13.10;99.90;;;;;;5033192;28;20509;-79
2022/09/29 12:40:32;;;;;;;3.65;2.50;;;13.00;99.90;;;;;;5028727;28;20607;-78
2022/09/29 12:43:36;;;;;;;4.28;3.20;;;13.00;99.90;;;;;;5011446;28;20071;-79
2022/09/29 12:46:43;;;;;;;3.57;2.20;;;13.00;99.90;;;;;;5016683;28;20041;-78
2022/09/29 12:49:21;;;;;;;3.78;2.40;;;13.10;99.90;;;;;;5017242;28;20292;-78
2022/09/29 12:51:51;;;;;;;2.20;1.80;;;13.10;99.90;;;;;;5027997;28;20092;-78
2022/09/29 12:54:44;;;;;;;3.15;2.30;;;13.10;99.90;;;;;;5028040;28;20501;-78
2022/09/29 12:57:22;;;;;;;4.30;2.50;;;13.10;99.90;;;;;;5027803;28;20082;-77
2022/09/29 13:00:12;;;;;;;3.45;2.30;;;13.10;99.90;;;;;;5028000;28;20030;-77
2022/09/29 13:03:01;;;;;;;2.65;2.13;;;13.10;99.90;;;;;;5029972;28;20021;-83
2022/09/29 13:06:00;;;;;;;6.85;1.63;;;13.10;99.90;;;;;;5029684;28;20036;-83
2022/09/29 13:08:39;;;;;;;1.15;1.05;;;13.20;99.90;;;;;;5027807;28;20030;-83
2022/09/29 13:11:36;;;;;;;1.73;1.05;;;13.30;99.90;;;;;;5033300;28;20493;-83
2022/09/29 13:14:42;;;;;;;2.15;1.20;;;13.20;99.30;;;;;;5025200;28;20104;-82
2022/09/29 13:17:19;;;;;;;1.65;1.27;;;13.20;99.90;;;;;;5028971;28;20359;-82
2022/09/29 13:20:25;;;;;;;2.15;1.20;;;13.30;99.90;;;;;;5030425;28;20068;-82
2022/09/29 13:23:16;;;;;;;2.13;1.10;;;13.40;99.90;;;;;;4954207;28;20026;-82
2022/09/29 13:26:16;;;;;;;2.42;1.10;;;13.50;99.90;;;;;;5032674;28;20038;-83
2022/09/29 13:28:45;;;;;;;1.05;0.88;;;13.60;99.90;;;;;;5051697;28;20108;-82